EL TIEMPO – JEREZ LA PARRA

METAR/TAF:

LEJR 200900Z VRB02KT CAVOK 22/12 Q1022



Comparte

Los comentarios están cerrados.